East Side, Mississippi
Current Conditions -  °F | °C
As of 6:53 PM on Thursday 27 Nov 2014 (Local Time) from KHBG Reporting Station
Clear Clear  
Wind Chill: 44°   Ceiling: Unl
Heat Index: 46°   Visibility: 10mi
Dew Point: 34°   Wind: 5mph
Humidity: 63%   Direction: 350°N
Pressure: 30.46"   Gusts: NA
Location:  31.3326°N, 88.8854°W
Report Text: KHBG 280053Z AUTO 35004KT 10SM CLR 08/01 A3046 RMK AO2 SLP314 T00780011
Loading
Personal Weather Stations






























Interactive Weather Map New forecast layout! Learn more

10-Day Weather Forecast

Advertisements
Track Severe Weather on mobile